createdAt,value
2019-05-06T00:00:55.716Z,101130.68
2019-05-06T00:03:16.776Z,101129.92
2019-05-06T00:05:45.739Z,101132.17
2019-05-06T00:08:14.668Z,101131.42
2019-05-06T00:10:44.717Z,101130.67
2019-05-06T00:13:13.993Z,101138.16
2019-05-06T00:15:43.704Z,101131.27
2019-05-06T00:18:17.174Z,101133.11
2019-05-06T00:20:50.767Z,101131.34
2019-05-06T00:23:28.396Z,101137.49
2019-05-06T00:26:13.745Z,101134.51
2019-05-06T00:28:48.578Z,101136.31
2019-05-06T00:31:18.906Z,101133.37
2019-05-06T00:33:50.543Z,101135.16
2019-05-06T00:36:19.103Z,101135.66
2019-05-06T00:38:53.932Z,101134.84
2019-05-06T00:41:27.039Z,101133.53
2019-05-06T00:43:55.584Z,101138.40
2019-05-06T00:46:26.226Z,101132.41
2019-05-06T00:48:56.249Z,101132.41
2019-05-06T00:51:24.837Z,101126.31
2019-05-06T00:54:00.961Z,101122.00
2019-05-06T00:56:29.516Z,101118.96
2019-05-06T00:58:59.428Z,101130.78
2019-05-06T01:01:29.784Z,101127.78
2019-05-06T01:03:58.626Z,101129.97
2019-05-06T01:06:31.093Z,101129.11
2019-05-06T01:08:59.624Z,101123.50
2019-05-06T01:11:28.377Z,101130.04
2019-05-06T01:14:08.206Z,101133.52
2019-05-06T01:16:36.803Z,101125.70
2019-05-06T01:19:05.526Z,101126.17
2019-05-06T01:21:37.239Z,101120.55
2019-05-06T01:24:05.945Z,101121.84
2019-05-06T01:26:34.494Z,101124.48
2019-05-06T01:29:04.907Z,101127.12
2019-05-06T01:31:42.758Z,101133.64
2019-05-06T01:34:06.952Z,101128.39
2019-05-06T01:36:35.522Z,101131.00
2019-05-06T01:39:28.092Z,101132.77
2019-05-06T01:42:09.657Z,101131.08
2019-05-06T01:44:38.548Z,101128.06
2019-05-06T01:47:08.788Z,101135.44
2019-05-06T01:49:37.341Z,101137.62
2019-05-06T01:52:06.249Z,101141.53
2019-05-06T01:54:34.786Z,101140.22
2019-05-06T01:57:04.411Z,101136.30
2019-05-06T01:59:34.007Z,101145.01
2019-05-06T02:02:04.229Z,101146.77
2019-05-06T02:04:34.609Z,101144.58
2019-05-06T02:07:03.930Z,101140.24
2019-05-06T02:09:34.239Z,101137.17
2019-05-06T02:12:04.627Z,101145.45
2019-05-06T02:14:34.135Z,101144.59
2019-05-06T02:17:04.204Z,101145.90
2019-05-06T02:19:34.751Z,101153.70
2019-05-06T02:22:31.991Z,101160.22
2019-05-06T02:25:09.341Z,101158.49
2019-05-06T02:27:37.935Z,101159.31
2019-05-06T02:30:16.480Z,101158.44
2019-05-06T02:32:57.013Z,101160.16
2019-05-06T02:35:36.396Z,101147.11
2019-05-06T02:38:06.613Z,101150.19
2019-05-06T02:40:35.144Z,101148.89
2019-05-06T02:43:03.962Z,101142.35
2019-05-06T02:45:33.502Z,101142.40
2019-05-06T02:48:08.230Z,101141.94
2019-05-06T02:50:54.218Z,101138.91
2019-05-06T02:53:26.697Z,101151.97
2019-05-06T02:55:55.590Z,101102.00
2019-05-06T02:58:26.328Z,101141.55
2019-05-06T03:00:55.368Z,101149.83
2019-05-06T03:03:26.008Z,101144.20
2019-05-06T03:05:56.627Z,101146.37
2019-05-06T03:08:25.194Z,101142.47
2019-05-06T03:10:53.894Z,101145.95
2019-05-06T03:13:23.575Z,101150.28
2019-05-06T03:15:54.415Z,101154.20
2019-05-06T03:18:23.775Z,101154.63
2019-05-06T03:21:13.831Z,101157.23
2019-05-06T03:23:46.317Z,101149.42
2019-05-06T03:26:16.458Z,101148.98
2019-05-06T03:28:47.755Z,101148.09
2019-05-06T03:31:17.204Z,101148.92
2019-05-06T03:34:12.714Z,101148.08
2019-05-06T03:36:27.296Z,101152.00
2019-05-06T03:38:53.644Z,101141.11
2019-05-06T03:41:26.124Z,101149.37
2019-05-06T03:43:54.306Z,101149.81
2019-05-06T03:46:43.066Z,101142.39
2019-05-06T03:49:13.550Z,101140.64
2019-05-06T03:51:44.140Z,101134.97
2019-05-06T03:54:13.307Z,101139.75
2019-05-06T03:56:43.317Z,101140.62
2019-05-06T03:59:13.334Z,101143.22
2019-05-06T04:01:43.049Z,101148.41
2019-05-06T04:04:15.398Z,101138.39
2019-05-06T04:06:43.956Z,101138.80
2019-05-06T04:09:14.065Z,101137.06
2019-05-06T04:11:43.468Z,101139.65
2019-05-06T04:14:14.055Z,101137.05
2019-05-06T04:16:48.852Z,101140.92
2019-05-06T04:19:24.522Z,101137.86
2019-05-06T04:22:03.706Z,101136.94
2019-05-06T04:24:54.223Z,101140.37
2019-05-06T04:27:34.508Z,101143.43
2019-05-06T04:30:04.717Z,101143.78
2019-05-06T04:32:35.044Z,101141.55
2019-05-06T04:35:05.595Z,101149.40
2019-05-06T04:37:34.376Z,101148.02
2019-05-06T04:40:04.534Z,101151.00
2019-05-06T04:42:34.435Z,101152.70
2019-05-06T04:45:04.740Z,101155.25
2019-05-06T04:47:35.218Z,101159.98
2019-05-06T04:50:06.229Z,101155.59
2019-05-06T04:52:36.136Z,101156.42
2019-05-06T04:55:05.066Z,101160.75
2019-05-06T04:57:33.998Z,101163.30
2019-05-06T05:00:04.348Z,101163.23
2019-05-06T05:02:33.860Z,101163.11
2019-05-06T05:05:04.045Z,101166.09
2019-05-06T05:07:39.494Z,101169.53
2019-05-06T05:10:20.377Z,101168.55
2019-05-06T05:13:09.370Z,101168.83
2019-05-06T05:15:56.846Z,101160.86
2019-05-06T05:18:42.474Z,101169.05
2019-05-06T05:21:11.924Z,101162.78
2019-05-06T05:23:42.935Z,101169.64
2019-05-06T05:26:12.098Z,101172.17
2019-05-06T05:28:42.788Z,101170.28
2019-05-06T05:31:12.293Z,101166.70
2019-05-06T05:33:42.296Z,101164.80
2019-05-06T05:36:12.369Z,101166.84
2019-05-06T05:38:42.804Z,101170.34
2019-05-06T05:41:13.477Z,101169.55
2019-05-06T05:44:02.437Z,101169.36
2019-05-06T05:46:32.887Z,101166.20
2019-05-06T05:49:07.974Z,101162.84
2019-05-06T05:51:38.226Z,101165.97
2019-05-06T05:54:08.800Z,101160.86
2019-05-06T05:56:38.751Z,101164.68
2019-05-06T05:59:07.298Z,101168.53
2019-05-06T06:01:37.463Z,101172.63
2019-05-06T06:04:06.100Z,101167.38
2019-05-06T06:06:34.667Z,101171.23
2019-05-06T06:09:03.598Z,101171.45
2019-05-06T06:11:38.400Z,101167.41
2019-05-06T06:14:26.845Z,101168.91
2019-05-06T06:17:20.686Z,101171.53
2019-05-06T06:19:55.952Z,101169.33
2019-05-06T06:22:28.913Z,101167.83
2019-05-06T06:24:57.853Z,101164.62
2019-05-06T06:27:28.800Z,101163.98
2019-05-06T06:29:57.701Z,101169.06
2019-05-06T06:32:28.577Z,101163.34
2019-05-06T06:35:22.864Z,101160.65
2019-05-06T06:38:03.071Z,101153.56
2019-05-06T06:40:34.474Z,101151.98
2019-05-06T06:43:12.416Z,101155.64
2019-05-06T06:45:46.365Z,101166.13
2019-05-06T06:48:16.705Z,101163.77
2019-05-06T06:50:45.284Z,101156.95
2019-05-06T06:53:14.134Z,101166.02
2019-05-06T06:55:44.059Z,101155.67
2019-05-06T06:58:34.545Z,101154.48
2019-05-06T07:01:19.488Z,101153.22
2019-05-06T07:03:55.554Z,101153.64
2019-05-06T07:06:45.279Z,101139.17
2019-05-06T07:09:15.581Z,101143.80
2019-05-06T07:11:44.147Z,101143.80
2019-05-06T07:14:13.706Z,101150.54
2019-05-06T07:16:44.126Z,101146.30
2019-05-06T07:19:15.156Z,101159.47
2019-05-06T07:21:52.269Z,101163.23
2019-05-06T07:24:22.854Z,101163.95
2019-05-06T07:26:57.740Z,101156.03
2019-05-06T07:29:29.745Z,101152.78
2019-05-06T07:32:02.635Z,101155.80
2019-05-06T07:34:34.763Z,101146.43
2019-05-06T07:37:06.870Z,101146.49
2019-05-06T07:39:42.800Z,101136.30
2019-05-06T07:42:16.328Z,101136.35
2019-05-06T07:45:06.395Z,101136.35
2019-05-06T07:47:53.260Z,101145.51
2019-05-06T07:50:22.379Z,101157.02
2019-05-06T07:53:09.903Z,101159.51
2019-05-06T07:55:42.406Z,101157.95
2019-05-06T07:58:13.569Z,101150.09
2019-05-06T08:00:42.329Z,101147.46
2019-05-06T08:03:14.094Z,101146.29
2019-05-06T08:05:54.713Z,101140.48
2019-05-06T08:08:18.168Z,101141.51
2019-05-06T08:10:48.191Z,101138.17
2019-05-06T08:13:22.610Z,101144.16
2019-05-06T08:15:54.313Z,101141.38
2019-05-06T08:18:22.882Z,101139.75
2019-05-06T08:20:52.025Z,101139.63
2019-05-06T08:23:39.693Z,101135.31
2019-05-06T08:26:13.191Z,101138.55
2019-05-06T08:28:41.721Z,101143.23
2019-05-06T08:31:12.828Z,101140.95
2019-05-06T08:33:43.176Z,101139.84
2019-05-06T08:36:17.476Z,101143.75
2019-05-06T08:38:57.310Z,101149.84
2019-05-06T08:41:27.871Z,101137.89
2019-05-06T08:43:56.819Z,101132.70
2019-05-06T08:46:27.137Z,101129.05
2019-05-06T08:48:57.795Z,101133.02
2019-05-06T08:51:45.614Z,101127.19
2019-05-06T08:54:25.430Z,101136.50
2019-05-06T08:56:54.264Z,101130.08
2019-05-06T08:59:25.491Z,101130.24
2019-05-06T09:01:56.647Z,101126.68
2019-05-06T09:04:25.395Z,101121.09
2019-05-06T09:06:53.948Z,101116.95
2019-05-06T09:09:22.915Z,101125.73
2019-05-06T09:11:53.472Z,101127.41
2019-05-06T09:14:25.092Z,101121.68
2019-05-06T09:16:55.783Z,101121.21
2019-05-06T09:19:24.704Z,101123.53
2019-05-06T09:21:53.684Z,101117.66
2019-05-06T09:24:23.021Z,101116.06
2019-05-06T09:27:03.757Z,101126.15
2019-05-06T09:29:39.069Z,101120.86
2019-05-06T09:32:14.012Z,101115.94
2019-05-06T09:34:53.688Z,101125.45
2019-05-06T09:37:24.454Z,101116.70
2019-05-06T09:39:54.368Z,101120.28
2019-05-06T09:42:24.888Z,101122.13
2019-05-06T09:44:54.396Z,101116.89
2019-05-06T09:47:30.378Z,101125.10
2019-05-06T09:50:02.737Z,101118.70
2019-05-06T09:52:33.325Z,101110.90
2019-05-06T09:55:32.549Z,101115.86
2019-05-06T09:58:05.876Z,101110.92
2019-05-06T10:00:38.849Z,101110.52
2019-05-06T10:03:08.144Z,101099.86
2019-05-06T10:05:37.100Z,101100.30
2019-05-06T10:08:05.930Z,101092.17
2019-05-06T10:10:36.129Z,101097.27
2019-05-06T10:13:06.600Z,101091.64
2019-05-06T10:15:37.025Z,101104.28
2019-05-06T10:18:12.708Z,101109.92
2019-05-06T10:20:42.678Z,101101.30
2019-05-06T10:23:13.934Z,101105.50
2019-05-06T10:25:43.698Z,101100.92
2019-05-06T10:28:33.209Z,101098.94
2019-05-06T10:31:02.386Z,101092.30
2019-05-06T10:33:32.441Z,101085.43
2019-05-06T10:36:04.725Z,101078.42
2019-05-06T10:39:07.718Z,101095.63
2019-05-06T10:41:39.630Z,101087.72
2019-05-06T10:44:37.868Z,101087.72
2019-05-06T10:47:07.116Z,101089.98
2019-05-06T10:49:36.186Z,101079.85
2019-05-06T10:52:30.967Z,101069.60
2019-05-06T10:55:00.413Z,101065.03
2019-05-06T10:57:35.880Z,101072.52
2019-05-06T11:00:06.896Z,101063.98
2019-05-06T11:02:52.265Z,101065.91
2019-05-06T11:05:20.236Z,101077.91
2019-05-06T11:07:52.160Z,101078.09
2019-05-06T11:10:27.728Z,101073.54
2019-05-06T11:12:52.329Z,101067.36
2019-05-06T11:15:23.278Z,101066.18
2019-05-06T11:17:51.552Z,101060.31
2019-05-06T11:20:20.675Z,101056.52
2019-05-06T11:22:49.228Z,101054.09
2019-05-06T11:25:19.462Z,101064.55
2019-05-06T11:27:52.641Z,101056.02
2019-05-06T11:30:43.648Z,101063.77
2019-05-06T11:33:38.197Z,101057.08
2019-05-06T11:36:12.262Z,101040.97
2019-05-06T11:38:43.126Z,101043.61
2019-05-06T11:41:13.186Z,101040.89
2019-05-06T11:43:43.862Z,101047.99
2019-05-06T11:46:14.390Z,101045.78
2019-05-06T11:48:44.790Z,101049.27
2019-05-06T11:51:24.766Z,101043.65
2019-05-06T11:53:54.204Z,101043.75
2019-05-06T11:56:23.185Z,101046.33
2019-05-06T11:58:54.918Z,101046.61
2019-05-06T12:01:32.651Z,101048.13
2019-05-06T12:04:03.416Z,101047.31
2019-05-06T12:06:35.786Z,101055.65
2019-05-06T12:09:07.825Z,101043.52
2019-05-06T12:11:38.077Z,101041.05
2019-05-06T12:14:12.297Z,101053.59
2019-05-06T12:16:43.778Z,101051.73
2019-05-06T12:19:14.141Z,101048.52
2019-05-06T12:21:43.186Z,101040.93
2019-05-06T12:24:13.316Z,101037.32
2019-05-06T12:26:42.909Z,101043.54
2019-05-06T12:29:12.691Z,101037.03
2019-05-06T12:31:43.207Z,101039.65
2019-05-06T12:34:14.711Z,101031.84
2019-05-06T12:36:43.687Z,101027.86
2019-05-06T12:39:28.171Z,101026.33
2019-05-06T12:42:15.757Z,101022.73
2019-05-06T12:44:56.787Z,101022.34
2019-05-06T12:47:42.815Z,101017.06
2019-05-06T12:50:11.344Z,101016.92
2019-05-06T12:52:43.805Z,101024.76
2019-05-06T12:55:18.230Z,101022.50
2019-05-06T12:57:44.234Z,101027.63
2019-05-06T13:00:13.799Z,101029.20
2019-05-06T13:02:43.716Z,101026.23
2019-05-06T13:05:14.342Z,101023.22
2019-05-06T13:07:46.201Z,101019.83
2019-05-06T13:10:15.994Z,101018.10
2019-05-06T13:12:46.686Z,101013.02
2019-05-06T13:15:15.662Z,101013.06
2019-05-06T13:17:44.262Z,101014.05
2019-05-06T13:20:15.326Z,101012.56
2019-05-06T13:23:09.657Z,101000.53
2019-05-06T13:25:33.250Z,101012.63
2019-05-06T13:28:03.640Z,101017.46
2019-05-06T13:30:35.621Z,101022.23
2019-05-06T13:33:13.712Z,101024.45
2019-05-06T13:35:43.956Z,101007.41
2019-05-06T13:38:12.560Z,101008.78
2019-05-06T13:40:53.891Z,101011.44
2019-05-06T13:43:35.768Z,101014.02
2019-05-06T13:46:12.398Z,101011.07
2019-05-06T13:48:46.457Z,101020.70
2019-05-06T13:51:19.643Z,101021.72
2019-05-06T13:53:48.315Z,101019.07
2019-05-06T13:56:16.955Z,101018.22
2019-05-06T13:58:48.884Z,101018.14
2019-05-06T14:01:22.289Z,101021.46
2019-05-06T14:03:55.468Z,101024.38
2019-05-06T14:06:24.224Z,101019.08
2019-05-06T14:08:53.067Z,101016.48
2019-05-06T14:11:23.022Z,101022.31
2019-05-06T14:13:53.161Z,101015.16
2019-05-06T14:16:24.471Z,101016.55
2019-05-06T14:18:53.393Z,101012.19
2019-05-06T14:21:22.947Z,101004.62
2019-05-06T14:23:51.973Z,101010.77
2019-05-06T14:26:33.253Z,101018.67
2019-05-06T14:29:12.777Z,101013.56
2019-05-06T14:31:47.458Z,101012.69
2019-05-06T14:34:19.164Z,101003.47
2019-05-06T14:36:47.754Z,101009.30
2019-05-06T14:39:25.000Z,101011.10
2019-05-06T14:41:55.131Z,101006.27
2019-05-06T14:44:26.936Z,100998.00
2019-05-06T14:47:06.607Z,101002.49
2019-05-06T14:49:35.176Z,100995.45
2019-05-06T14:52:05.423Z,100996.45
2019-05-06T14:54:48.582Z,100998.14
2019-05-06T14:57:17.566Z,100998.92
2019-05-06T14:59:46.318Z,100999.26
2019-05-06T15:02:15.571Z,100998.20
2019-05-06T15:04:45.530Z,100996.30
2019-05-06T15:07:18.523Z,100992.41
2019-05-06T15:10:02.109Z,100993.60
2019-05-06T15:12:17.387Z,100993.95
2019-05-06T15:14:47.303Z,100986.77
2019-05-06T15:17:16.100Z,100982.37
2019-05-06T15:19:44.985Z,100978.84
2019-05-06T15:22:13.828Z,100984.37
2019-05-06T15:24:44.118Z,100984.37
2019-05-06T15:27:12.860Z,100979.81
2019-05-06T15:29:43.053Z,100978.94
2019-05-06T15:32:27.273Z,100970.94
2019-05-06T15:35:28.709Z,100967.44
2019-05-06T15:38:04.499Z,100973.22
2019-05-06T15:40:36.624Z,100981.84
2019-05-06T15:43:03.321Z,100976.40
2019-05-06T15:45:32.540Z,100977.81
2019-05-06T15:48:02.844Z,100982.14
2019-05-06T15:50:32.436Z,100976.66
2019-05-06T15:53:02.927Z,100980.39
2019-05-06T15:55:35.227Z,100987.36
2019-05-06T15:58:08.208Z,100982.30
2019-05-06T16:00:39.231Z,100985.84
2019-05-06T16:03:09.965Z,100987.84
2019-05-06T16:05:43.715Z,100989.80
2019-05-06T16:08:12.419Z,100986.44
2019-05-06T16:10:52.352Z,100989.30
2019-05-06T16:13:14.982Z,100994.00
2019-05-06T16:15:45.198Z,100987.56
2019-05-06T16:18:15.857Z,100988.75
2019-05-06T16:20:47.651Z,100980.73
2019-05-06T16:23:24.851Z,100979.03
2019-05-06T16:25:54.019Z,100984.59
2019-05-06T16:28:26.494Z,100979.02
2019-05-06T16:30:55.058Z,100980.32
2019-05-06T16:33:26.076Z,100983.51
2019-05-06T16:35:54.825Z,100978.88
2019-05-06T16:38:26.475Z,100979.68
2019-05-06T16:41:09.358Z,100975.63
2019-05-06T16:43:27.852Z,100975.03
2019-05-06T16:45:56.778Z,100973.19
2019-05-06T16:48:25.514Z,100976.55
2019-05-06T16:50:54.593Z,100974.73
2019-05-06T16:53:23.962Z,100973.17
2019-05-06T16:56:14.595Z,100974.37
2019-05-06T16:58:47.452Z,100969.59
2019-05-06T17:01:16.536Z,100972.11
2019-05-06T17:03:53.884Z,100963.64
2019-05-06T17:06:26.635Z,100970.92
2019-05-06T17:08:55.411Z,100972.80
2019-05-06T17:11:33.506Z,100975.69
2019-05-06T17:13:59.771Z,100975.18
2019-05-06T17:16:28.474Z,100982.94
2019-05-06T17:19:00.486Z,100982.45
2019-05-06T17:21:29.236Z,100979.50
2019-05-06T17:23:57.796Z,100980.86
2019-05-06T17:26:26.527Z,100988.55
2019-05-06T17:29:07.288Z,100987.86
2019-05-06T17:31:43.970Z,100993.52
2019-05-06T17:34:16.769Z,100994.06
2019-05-06T17:36:45.964Z,100986.86
2019-05-06T17:39:14.591Z,100987.59
2019-05-06T17:41:48.675Z,100988.06
2019-05-06T17:44:14.222Z,100999.16
2019-05-06T17:47:12.134Z,101013.94
2019-05-06T17:49:48.395Z,101016.17
2019-05-06T17:52:22.376Z,101020.64
2019-05-06T17:54:52.764Z,101017.03
2019-05-06T17:57:22.440Z,101033.63
2019-05-06T17:59:53.273Z,101042.29
2019-05-06T18:02:23.628Z,101043.98
2019-05-06T18:04:53.659Z,101043.05
2019-05-06T18:07:22.432Z,101049.70
2019-05-06T18:09:52.234Z,101053.19
2019-05-06T18:12:24.188Z,101045.53
2019-05-06T18:14:53.516Z,101045.53
2019-05-06T18:17:22.611Z,101051.23
2019-05-06T18:19:51.517Z,101051.23
2019-05-06T18:22:20.244Z,101057.39
2019-05-06T18:24:49.186Z,101057.13
2019-05-06T18:27:18.368Z,101066.66
2019-05-06T18:29:50.041Z,101068.58
2019-05-06T18:32:20.362Z,101068.58
2019-05-06T18:34:52.791Z,101068.08
2019-05-06T18:37:23.405Z,101069.26
2019-05-06T18:39:53.097Z,101075.85
2019-05-06T18:42:24.082Z,101071.34
2019-05-06T18:44:52.645Z,101072.70
2019-05-06T18:47:24.442Z,101066.91
2019-05-06T18:49:53.180Z,101069.25
2019-05-06T18:52:24.793Z,101062.00
2019-05-06T18:54:53.744Z,101047.84
2019-05-06T18:57:22.801Z,101047.84
2019-05-06T18:59:53.471Z,101046.05
2019-05-06T19:02:22.948Z,101053.06
2019-05-06T19:04:56.420Z,101048.58
2019-05-06T19:07:25.493Z,101048.58
2019-05-06T19:09:58.772Z,101055.98
2019-05-06T19:12:34.388Z,101054.33
2019-05-06T19:14:58.223Z,101078.73
2019-05-06T19:17:26.942Z,101073.38
2019-05-06T19:20:02.640Z,101073.03
2019-05-06T19:22:33.011Z,101068.14
2019-05-06T19:25:02.703Z,101083.48
2019-05-06T19:27:33.368Z,101083.48
2019-05-06T19:30:07.488Z,101075.29
2019-05-06T19:32:37.406Z,101075.29
2019-05-06T19:35:16.705Z,101079.95
2019-05-06T19:37:48.888Z,101083.35
2019-05-06T19:40:17.848Z,101076.25
2019-05-06T19:42:52.624Z,101073.48
2019-05-06T19:45:23.139Z,101066.14
2019-05-06T19:47:52.349Z,101080.80
2019-05-06T19:50:25.693Z,101080.80
2019-05-06T19:52:52.878Z,101083.31
2019-05-06T19:55:23.085Z,101076.09
2019-05-06T19:57:52.698Z,101080.43
2019-05-06T20:00:22.857Z,101080.43
2019-05-06T20:02:53.577Z,101069.25
2019-05-06T20:05:35.013Z,101084.67
2019-05-06T20:08:23.194Z,101084.77
2019-05-06T20:11:02.213Z,101081.23
2019-05-06T20:13:32.458Z,101084.03
2019-05-06T20:16:02.767Z,101081.48
2019-05-06T20:18:32.864Z,101081.45
2019-05-06T20:21:03.886Z,101086.41
2019-05-06T20:23:32.918Z,101083.61
2019-05-06T20:26:02.852Z,101080.06
2019-05-06T20:28:32.215Z,101080.06
2019-05-06T20:31:03.844Z,101069.80
2019-05-06T20:33:32.736Z,101066.88
2019-05-06T20:36:01.322Z,101056.77
2019-05-06T20:38:33.618Z,101069.17
2019-05-06T20:41:03.134Z,101060.08
2019-05-06T20:43:32.918Z,101072.95
2019-05-06T20:46:03.107Z,101072.95
2019-05-06T20:48:32.635Z,101066.11
2019-05-06T20:51:03.702Z,101078.32
2019-05-06T20:53:32.621Z,101076.50
2019-05-06T20:56:02.829Z,101081.13
2019-05-06T20:58:32.171Z,101078.24
2019-05-06T21:01:05.815Z,101079.29
2019-05-06T21:03:34.134Z,101078.32
2019-05-06T21:06:05.326Z,101078.24
2019-05-06T21:08:35.649Z,101077.31
2019-05-06T21:11:06.180Z,101071.58
2019-05-06T21:13:35.702Z,101070.63
2019-05-06T21:16:05.747Z,101070.63
2019-05-06T21:18:35.884Z,101075.80
2019-05-06T21:21:05.010Z,101077.98
2019-05-06T21:23:33.971Z,101074.22
2019-05-06T21:26:03.443Z,101063.14
2019-05-06T21:28:35.008Z,101062.58
2019-05-06T21:31:03.585Z,101055.45
2019-05-06T21:33:32.915Z,101057.70
2019-05-06T21:36:03.083Z,101058.47
2019-05-06T21:38:31.980Z,101059.31
2019-05-06T21:41:02.042Z,101059.31
2019-05-06T21:43:43.710Z,101057.11
2019-05-06T21:46:02.396Z,101059.40
2019-05-06T21:48:34.312Z,101061.53
2019-05-06T21:51:03.063Z,101059.44
2019-05-06T21:53:32.712Z,101052.98
2019-05-06T21:56:02.589Z,101056.38
2019-05-06T21:58:31.151Z,101055.96
2019-05-06T22:01:05.569Z,101054.61
2019-05-06T22:03:34.496Z,101054.86
2019-05-06T22:06:05.220Z,101054.94
2019-05-06T22:08:34.329Z,101055.03
2019-05-06T22:11:03.216Z,101057.11
2019-05-06T22:13:33.915Z,101057.11
2019-05-06T22:16:04.890Z,101050.91
2019-05-06T22:18:33.115Z,101045.55
2019-05-06T22:21:12.026Z,101047.84
2019-05-06T22:24:05.859Z,101051.11
2019-05-06T22:26:34.571Z,101049.57
2019-05-06T22:29:07.126Z,101050.73
2019-05-06T22:31:35.695Z,101053.05
2019-05-06T22:34:04.920Z,101054.22
2019-05-06T22:36:33.676Z,101057.20
2019-05-06T22:39:05.390Z,101046.16
2019-05-06T22:41:35.512Z,101058.78
2019-05-06T22:44:13.261Z,101049.91
2019-05-06T22:46:35.079Z,101049.33
2019-05-06T22:49:05.699Z,101059.12
2019-05-06T22:51:37.586Z,101056.07
2019-05-06T22:54:06.155Z,101052.59
2019-05-06T22:56:36.808Z,101042.92
2019-05-06T22:59:05.715Z,101046.48
2019-05-06T23:01:54.721Z,101051.82
2019-05-06T23:04:26.841Z,101050.08
2019-05-06T23:06:55.721Z,101057.97
2019-05-06T23:09:24.959Z,101060.21
2019-05-06T23:11:53.736Z,101063.31
2019-05-06T23:14:31.177Z,101056.77
2019-05-06T23:16:54.274Z,101057.08
2019-05-06T23:19:24.596Z,101058.31
2019-05-06T23:21:53.411Z,101061.34
2019-05-06T23:24:22.889Z,101063.16
2019-05-06T23:26:54.292Z,101057.89
2019-05-06T23:29:24.087Z,101055.73
2019-05-06T23:31:56.408Z,101054.37
2019-05-06T23:34:26.677Z,101055.11
2019-05-06T23:37:30.797Z,101058.78
2019-05-06T23:40:42.833Z,101063.13
2019-05-06T23:43:47.507Z,101062.42
2019-05-06T23:46:52.796Z,101062.16
2019-05-06T23:49:57.769Z,101066.44
2019-05-06T23:53:03.077Z,101059.98
2019-05-06T23:56:08.153Z,101061.33
2019-05-06T23:58:38.817Z,101064.15
